Main page
METAR-TAF:

METAR-TAF

Airports :

Windham Airport

Willimantic, Connecticut, United States

latitude: 41-44-31N, longitude: 072-11-01W, elevation: 246 ft

Current weather observation

The report was made 37 minutes ago, at 04:52 UTC
Wind 5 mph from the South/Southeast
Temperature 57°F
Humidity 94%
Pressure 29.95 in. Hg
Visibility: 9 miles
Scattered clouds at a height of 1800 ft
Overcast at a height of 4300 ft
light rain

METAR: KIJD 210452Z AUTO 16004KT 9SM -RA SCT018 OVC043 14/13 A2995 RMK AO2 RAE29B45 SLP140 P0004 T01440128 401940144

Time: 01:29 (05:29 UTC)


TAF: missing

Weather observations and forecasts of more than 4000 airports (METAR and TAF reports).

The available stations are represented by yellow and red dots on the map.

Hover mouse over dot to see the name of the station.

Then click to see weather observations and forecasts.

To change the map : click on the green buttons with a black cross to zoom in, on the green button with a dash to zoom out, or on the green arrows for adjacent maps.


METAR-TAF: